sensor_id;sensor_type;location;lat;lon;timestamp;temperature;humidity
11764;DHT22;5939;56.522;14.950;2023-07-09T00:00:17;19.90;99.30
11764;DHT22;5939;56.522;14.950;2023-07-09T00:02:43;19.90;99.30
11764;DHT22;5939;56.522;14.950;2023-07-09T00:05:13;19.80;99.30
11764;DHT22;5939;56.522;14.950;2023-07-09T00:07:39;19.80;99.30
11764;DHT22;5939;56.522;14.950;2023-07-09T00:10:21;19.80;99.30
11764;DHT22;5939;56.522;14.950;2023-07-09T00:12:47;19.70;99.30
11764;DHT22;5939;56.522;14.950;2023-07-09T00:15:14;19.70;99.30
11764;DHT22;5939;56.522;14.950;2023-07-09T00:17:43;19.70;99.30
11764;DHT22;5939;56.522;14.950;2023-07-09T00:20:16;19.70;99.30
11764;DHT22;5939;56.522;14.950;2023-07-09T00:22:43;19.60;99.30
11764;DHT22;5939;56.522;14.950;2023-07-09T00:25:19;19.60;99.30
11764;DHT22;5939;56.522;14.950;2023-07-09T00:27:45;19.60;99.30
11764;DHT22;5939;56.522;14.950;2023-07-09T00:30:22;19.50;99.30
11764;DHT22;5939;56.522;14.950;2023-07-09T00:32:49;19.50;99.30
11764;DHT22;5939;56.522;14.950;2023-07-09T00:35:15;19.50;99.30
11764;DHT22;5939;56.522;14.950;2023-07-09T00:37:42;19.50;99.30
11764;DHT22;5939;56.522;14.950;2023-07-09T00:40:15;19.40;99.30
11764;DHT22;5939;56.522;14.950;2023-07-09T00:42:44;19.40;99.30
11764;DHT22;5939;56.522;14.950;2023-07-09T00:45:21;19.40;99.30
11764;DHT22;5939;56.522;14.950;2023-07-09T00:50:37;19.30;99.30
11764;DHT22;5939;56.522;14.950;2023-07-09T00:53:20;19.30;99.30
11764;DHT22;5939;56.522;14.950;2023-07-09T00:55:58;19.30;99.30
11764;DHT22;5939;56.522;14.950;2023-07-09T00:58:26;19.30;99.40
11764;DHT22;5939;56.522;14.950;2023-07-09T01:00:56;19.20;99.40
11764;DHT22;5939;56.522;14.950;2023-07-09T01:03:35;19.20;99.40
11764;DHT22;5939;56.522;14.950;2023-07-09T01:06:02;19.20;99.40
11764;DHT22;5939;56.522;14.950;2023-07-09T01:08:32;19.10;99.30
11764;DHT22;5939;56.522;14.950;2023-07-09T01:10:59;19.10;99.40
11764;DHT22;5939;56.522;14.950;2023-07-09T01:13:27;19.10;99.30
11764;DHT22;5939;56.522;14.950;2023-07-09T01:15:53;19.10;99.40
11764;DHT22;5939;56.522;14.950;2023-07-09T01:18:19;19.00;99.40
11764;DHT22;5939;56.522;14.950;2023-07-09T01:20:46;19.00;99.40
11764;DHT22;5939;56.522;14.950;2023-07-09T01:23:12;19.00;99.40
11764;DHT22;5939;56.522;14.950;2023-07-09T01:25:46;19.00;99.40
11764;DHT22;5939;56.522;14.950;2023-07-09T01:28:18;18.90;99.40
11764;DHT22;5939;56.522;14.950;2023-07-09T01:30:43;18.90;99.40
11764;DHT22;5939;56.522;14.950;2023-07-09T01:33:10;18.90;99.40
11764;DHT22;5939;56.522;14.950;2023-07-09T01:35:38;18.90;99.40
11764;DHT22;5939;56.522;14.950;2023-07-09T01:38:06;18.80;99.40
11764;DHT22;5939;56.522;14.950;2023-07-09T01:40:32;18.80;99.40
11764;DHT22;5939;56.522;14.950;2023-07-09T01:42:59;18.80;99.50
11764;DHT22;5939;56.522;14.950;2023-07-09T01:45:26;18.80;99.50
11764;DHT22;5939;56.522;14.950;2023-07-09T01:47:52;18.70;99.50
11764;DHT22;5939;56.522;14.950;2023-07-09T01:50:21;18.70;99.40
11764;DHT22;5939;56.522;14.950;2023-07-09T01:52:47;18.70;99.50
11764;DHT22;5939;56.522;14.950;2023-07-09T01:55:15;18.70;99.40
11764;DHT22;5939;56.522;14.950;2023-07-09T01:57:42;18.60;99.60
11764;DHT22;5939;56.522;14.950;2023-07-09T02:00:14;18.60;99.60
11764;DHT22;5939;56.522;14.950;2023-07-09T02:02:41;18.60;99.50
11764;DHT22;5939;56.522;14.950;2023-07-09T02:05:12;18.60;99.60
11764;DHT22;5939;56.522;14.950;2023-07-09T02:07:38;18.50;99.60
11764;DHT22;5939;56.522;14.950;2023-07-09T02:10:04;18.50;99.60
11764;DHT22;5939;56.522;14.950;2023-07-09T02:12:30;18.50;99.50
11764;DHT22;5939;56.522;14.950;2023-07-09T02:14:56;18.50;99.60
11764;DHT22;5939;56.522;14.950;2023-07-09T02:17:21;18.50;99.60
11764;DHT22;5939;56.522;14.950;2023-07-09T02:19:47;18.50;99.60
11764;DHT22;5939;56.522;14.950;2023-07-09T02:22:13;18.40;99.60
11764;DHT22;5939;56.522;14.950;2023-07-09T02:24:38;18.40;99.60
11764;DHT22;5939;56.522;14.950;2023-07-09T02:27:06;18.40;99.60
11764;DHT22;5939;56.522;14.950;2023-07-09T02:29:33;18.30;99.70
11764;DHT22;5939;56.522;14.950;2023-07-09T02:32:00;18.30;99.70
11764;DHT22;5939;56.522;14.950;2023-07-09T02:34:27;18.30;99.60
11764;DHT22;5939;56.522;14.950;2023-07-09T02:36:53;18.30;99.70
11764;DHT22;5939;56.522;14.950;2023-07-09T02:39:20;18.30;99.70
11764;DHT22;5939;56.522;14.950;2023-07-09T02:41:46;18.20;99.70
11764;DHT22;5939;56.522;14.950;2023-07-09T02:44:12;18.20;99.70
11764;DHT22;5939;56.522;14.950;2023-07-09T02:46:38;18.20;99.70
11764;DHT22;5939;56.522;14.950;2023-07-09T02:49:05;18.20;99.80
11764;DHT22;5939;56.522;14.950;2023-07-09T02:51:32;18.10;99.70
11764;DHT22;5939;56.522;14.950;2023-07-09T02:54:00;18.10;99.70
11764;DHT22;5939;56.522;14.950;2023-07-09T02:56:27;18.10;99.70
11764;DHT22;5939;56.522;14.950;2023-07-09T02:58:53;18.10;99.80
11764;DHT22;5939;56.522;14.950;2023-07-09T03:01:19;18.10;99.80
11764;DHT22;5939;56.522;14.950;2023-07-09T03:03:51;18.10;99.80
11764;DHT22;5939;56.522;14.950;2023-07-09T03:06:20;18.00;99.80
11764;DHT22;5939;56.522;14.950;2023-07-09T03:08:45;18.00;99.80
11764;DHT22;5939;56.522;14.950;2023-07-09T03:11:13;18.00;99.90
11764;DHT22;5939;56.522;14.950;2023-07-09T03:13:38;18.00;99.80
11764;DHT22;5939;56.522;14.950;2023-07-09T03:16:05;18.00;99.90
11764;DHT22;5939;56.522;14.950;2023-07-09T03:18:31;17.90;99.80
11764;DHT22;5939;56.522;14.950;2023-07-09T03:20:57;17.90;99.90
11764;DHT22;5939;56.522;14.950;2023-07-09T03:23:22;17.90;99.90
11764;DHT22;5939;56.522;14.950;2023-07-09T03:25:48;17.90;99.90
11764;DHT22;5939;56.522;14.950;2023-07-09T03:28:14;17.90;99.90
11764;DHT22;5939;56.522;14.950;2023-07-09T03:30:45;17.90;99.90
11764;DHT22;5939;56.522;14.950;2023-07-09T03:33:13;17.80;99.90
11764;DHT22;5939;56.522;14.950;2023-07-09T03:35:39;17.80;99.90
11764;DHT22;5939;56.522;14.950;2023-07-09T03:38:05;17.80;99.90
11764;DHT22;5939;56.522;14.950;2023-07-09T03:40:31;17.80;99.90
11764;DHT22;5939;56.522;14.950;2023-07-09T03:42:57;17.80;99.90
11764;DHT22;5939;56.522;14.950;2023-07-09T03:45:23;17.80;99.90
11764;DHT22;5939;56.522;14.950;2023-07-09T03:47:48;17.80;99.90
11764;DHT22;5939;56.522;14.950;2023-07-09T03:50:14;17.70;99.90
11764;DHT22;5939;56.522;14.950;2023-07-09T03:52:40;17.70;99.90
11764;DHT22;5939;56.522;14.950;2023-07-09T03:55:06;17.70;99.90
11764;DHT22;5939;56.522;14.950;2023-07-09T03:57:33;17.70;99.90
11764;DHT22;5939;56.522;14.950;2023-07-09T03:59:59;17.70;99.90
11764;DHT22;5939;56.522;14.950;2023-07-09T04:02:25;17.70;99.90
11764;DHT22;5939;56.522;14.950;2023-07-09T04:04:50;17.70;99.90
11764;DHT22;5939;56.522;14.950;2023-07-09T04:07:16;17.60;99.90
11764;DHT22;5939;56.522;14.950;2023-07-09T04:09:42;17.70;99.90
11764;DHT22;5939;56.522;14.950;2023-07-09T04:12:09;17.60;99.90
11764;DHT22;5939;56.522;14.950;2023-07-09T04:14:35;17.60;99.90
11764;DHT22;5939;56.522;14.950;2023-07-09T04:17:01;17.60;99.90
11764;DHT22;5939;56.522;14.950;2023-07-09T04:19:27;17.60;99.90
11764;DHT22;5939;56.522;14.950;2023-07-09T04:21:53;17.60;99.90
11764;DHT22;5939;56.522;14.950;2023-07-09T04:24:19;17.60;99.90
11764;DHT22;5939;56.522;14.950;2023-07-09T04:26:45;17.60;99.90
11764;DHT22;5939;56.522;14.950;2023-07-09T04:29:11;17.60;99.90
11764;DHT22;5939;56.522;14.950;2023-07-09T04:31:37;17.60;99.90
11764;DHT22;5939;56.522;14.950;2023-07-09T04:34:04;17.60;99.90
11764;DHT22;5939;56.522;14.950;2023-07-09T04:36:30;17.60;99.90
11764;DHT22;5939;56.522;14.950;2023-07-09T04:38:57;17.60;99.90
11764;DHT22;5939;56.522;14.950;2023-07-09T04:41:22;17.60;99.90
11764;DHT22;5939;56.522;14.950;2023-07-09T04:43:48;17.60;99.90
11764;DHT22;5939;56.522;14.950;2023-07-09T04:46:14;17.60;99.90
11764;DHT22;5939;56.522;14.950;2023-07-09T04:48:40;17.60;99.90
11764;DHT22;5939;56.522;14.950;2023-07-09T04:51:05;17.60;99.90
11764;DHT22;5939;56.522;14.950;2023-07-09T04:53:31;17.60;99.90
11764;DHT22;5939;56.522;14.950;2023-07-09T04:55:57;17.60;99.90
11764;DHT22;5939;56.522;14.950;2023-07-09T04:58:23;17.60;99.90
11764;DHT22;5939;56.522;14.950;2023-07-09T05:00:48;17.60;99.90
11764;DHT22;5939;56.522;14.950;2023-07-09T05:03:16;17.60;99.90
11764;DHT22;5939;56.522;14.950;2023-07-09T05:05:45;17.60;99.90
11764;DHT22;5939;56.522;14.950;2023-07-09T05:08:12;17.60;99.90
11764;DHT22;5939;56.522;14.950;2023-07-09T05:10:42;17.70;99.90
11764;DHT22;5939;56.522;14.950;2023-07-09T05:13:08;17.70;99.90
11764;DHT22;5939;56.522;14.950;2023-07-09T05:15:34;17.70;99.90
11764;DHT22;5939;56.522;14.950;2023-07-09T05:17:59;17.70;99.90
11764;DHT22;5939;56.522;14.950;2023-07-09T05:20:25;17.80;99.90
11764;DHT22;5939;56.522;14.950;2023-07-09T05:22:51;17.90;99.90
11764;DHT22;5939;56.522;14.950;2023-07-09T05:25:17;17.90;99.90
11764;DHT22;5939;56.522;14.950;2023-07-09T05:27:43;18.00;99.90
11764;DHT22;5939;56.522;14.950;2023-07-09T05:30:09;18.00;99.90
11764;DHT22;5939;56.522;14.950;2023-07-09T05:32:36;18.10;99.90
11764;DHT22;5939;56.522;14.950;2023-07-09T05:35:03;18.20;99.90
11764;DHT22;5939;56.522;14.950;2023-07-09T05:37:28;18.30;99.90
11764;DHT22;5939;56.522;14.950;2023-07-09T05:39:54;18.30;99.90
11764;DHT22;5939;56.522;14.950;2023-07-09T05:42:20;18.40;99.90
11764;DHT22;5939;56.522;14.950;2023-07-09T05:44:46;18.50;99.90
11764;DHT22;5939;56.522;14.950;2023-07-09T05:47:11;18.50;99.90
11764;DHT22;5939;56.522;14.950;2023-07-09T05:49:38;18.60;99.90
11764;DHT22;5939;56.522;14.950;2023-07-09T05:52:04;18.60;99.90
11764;DHT22;5939;56.522;14.950;2023-07-09T05:54:31;18.70;99.90
11764;DHT22;5939;56.522;14.950;2023-07-09T05:56:56;18.70;99.90
11764;DHT22;5939;56.522;14.950;2023-07-09T05:59:22;18.80;99.90
11764;DHT22;5939;56.522;14.950;2023-07-09T06:01:48;18.80;99.90
11764;DHT22;5939;56.522;14.950;2023-07-09T06:04:13;18.90;99.90
11764;DHT22;5939;56.522;14.950;2023-07-09T06:06:40;19.00;99.90
11764;DHT22;5939;56.522;14.950;2023-07-09T06:09:08;19.00;99.90
11764;DHT22;5939;56.522;14.950;2023-07-09T06:11:34;19.10;99.90
11764;DHT22;5939;56.522;14.950;2023-07-09T06:14:00;19.10;99.90
11764;DHT22;5939;56.522;14.950;2023-07-09T06:16:27;19.20;99.90
11764;DHT22;5939;56.522;14.950;2023-07-09T06:18:52;19.20;99.90
11764;DHT22;5939;56.522;14.950;2023-07-09T06:21:18;19.30;99.90
11764;DHT22;5939;56.522;14.950;2023-07-09T06:23:46;19.30;99.90
11764;DHT22;5939;56.522;14.950;2023-07-09T06:26:12;19.40;99.90
11764;DHT22;5939;56.522;14.950;2023-07-09T06:28:38;19.40;99.90
11764;DHT22;5939;56.522;14.950;2023-07-09T06:31:03;19.40;99.90
11764;DHT22;5939;56.522;14.950;2023-07-09T06:33:29;19.50;99.90
11764;DHT22;5939;56.522;14.950;2023-07-09T06:36:00;19.50;99.90
11764;DHT22;5939;56.522;14.950;2023-07-09T06:38:26;19.60;99.90
11764;DHT22;5939;56.522;14.950;2023-07-09T06:40:53;19.60;99.90
11764;DHT22;5939;56.522;14.950;2023-07-09T06:43:19;19.70;99.90
11764;DHT22;5939;56.522;14.950;2023-07-09T06:45:56;19.70;99.90
11764;DHT22;5939;56.522;14.950;2023-07-09T06:48:24;19.80;99.90
11764;DHT22;5939;56.522;14.950;2023-07-09T06:50:53;19.80;99.90
11764;DHT22;5939;56.522;14.950;2023-07-09T06:53:20;19.90;99.90
11764;DHT22;5939;56.522;14.950;2023-07-09T06:55:46;20.00;99.90
11764;DHT22;5939;56.522;14.950;2023-07-09T06:58:12;20.00;99.90
11764;DHT22;5939;56.522;14.950;2023-07-09T07:00:38;20.10;99.90
11764;DHT22;5939;56.522;14.950;2023-07-09T07:03:04;20.20;99.90
11764;DHT22;5939;56.522;14.950;2023-07-09T07:05:30;20.30;99.90
11764;DHT22;5939;56.522;14.950;2023-07-09T07:07:56;20.40;99.90
11764;DHT22;5939;56.522;14.950;2023-07-09T07:10:22;20.50;99.90
11764;DHT22;5939;56.522;14.950;2023-07-09T07:12:48;20.60;99.90
11764;DHT22;5939;56.522;14.950;2023-07-09T07:15:16;20.80;99.90
11764;DHT22;5939;56.522;14.950;2023-07-09T07:17:42;20.80;99.90
11764;DHT22;5939;56.522;14.950;2023-07-09T07:20:09;20.90;99.90
11764;DHT22;5939;56.522;14.950;2023-07-09T07:22:36;21.10;99.90
11764;DHT22;5939;56.522;14.950;2023-07-09T07:25:03;21.20;99.90
11764;DHT22;5939;56.522;14.950;2023-07-09T07:27:29;21.30;99.90
11764;DHT22;5939;56.522;14.950;2023-07-09T07:29:54;21.50;99.90
11764;DHT22;5939;56.522;14.950;2023-07-09T07:32:20;21.60;99.90
11764;DHT22;5939;56.522;14.950;2023-07-09T07:34:49;21.70;99.90
11764;DHT22;5939;56.522;14.950;2023-07-09T07:37:17;21.90;99.90
11764;DHT22;5939;56.522;14.950;2023-07-09T07:39:44;22.00;99.90
11764;DHT22;5939;56.522;14.950;2023-07-09T07:42:10;22.10;99.90
11764;DHT22;5939;56.522;14.950;2023-07-09T07:44:36;22.30;99.90
11764;DHT22;5939;56.522;14.950;2023-07-09T07:47:01;22.40;99.90
11764;DHT22;5939;56.522;14.950;2023-07-09T07:49:28;22.50;99.90
11764;DHT22;5939;56.522;14.950;2023-07-09T07:51:54;22.60;99.90
11764;DHT22;5939;56.522;14.950;2023-07-09T07:54:21;22.80;99.90
11764;DHT22;5939;56.522;14.950;2023-07-09T07:56:46;22.80;99.90
11764;DHT22;5939;56.522;14.950;2023-07-09T07:59:12;23.00;99.90
11764;DHT22;5939;56.522;14.950;2023-07-09T08:01:39;23.00;99.90
11764;DHT22;5939;56.522;14.950;2023-07-09T08:04:05;23.20;99.90
11764;DHT22;5939;56.522;14.950;2023-07-09T08:06:31;23.30;99.90
11764;DHT22;5939;56.522;14.950;2023-07-09T08:08:58;23.40;99.70
11764;DHT22;5939;56.522;14.950;2023-07-09T08:11:24;23.50;99.50
11764;DHT22;5939;56.522;14.950;2023-07-09T08:13:50;23.60;99.50
11764;DHT22;5939;56.522;14.950;2023-07-09T08:16:16;23.60;99.50
11764;DHT22;5939;56.522;14.950;2023-07-09T08:18:42;23.80;99.50
11764;DHT22;5939;56.522;14.950;2023-07-09T08:21:08;23.80;99.40
11764;DHT22;5939;56.522;14.950;2023-07-09T08:23:35;23.90;99.50
11764;DHT22;5939;56.522;14.950;2023-07-09T08:26:01;24.00;99.60
11764;DHT22;5939;56.522;14.950;2023-07-09T08:28:29;24.10;99.60
11764;DHT22;5939;56.522;14.950;2023-07-09T08:30:56;24.20;99.30
11764;DHT22;5939;56.522;14.950;2023-07-09T08:33:22;24.30;99.20
11764;DHT22;5939;56.522;14.950;2023-07-09T08:35:52;24.40;99.50
11764;DHT22;5939;56.522;14.950;2023-07-09T08:38:19;24.40;99.20
11764;DHT22;5939;56.522;14.950;2023-07-09T08:40:57;24.50;99.30
11764;DHT22;5939;56.522;14.950;2023-07-09T08:43:38;24.60;99.20
11764;DHT22;5939;56.522;14.950;2023-07-09T08:46:24;24.70;99.50
11764;DHT22;5939;56.522;14.950;2023-07-09T08:48:54;24.80;99.20
11764;DHT22;5939;56.522;14.950;2023-07-09T08:51:37;25.00;99.20
11764;DHT22;5939;56.522;14.950;2023-07-09T08:54:12;25.00;99.00
11764;DHT22;5939;56.522;14.950;2023-07-09T08:56:40;25.10;99.00
11764;DHT22;5939;56.522;14.950;2023-07-09T08:59:09;25.20;99.70
11764;DHT22;5939;56.522;14.950;2023-07-09T09:01:40;25.30;99.40
11764;DHT22;5939;56.522;14.950;2023-07-09T09:04:31;25.40;99.50
11764;DHT22;5939;56.522;14.950;2023-07-09T09:07:19;25.50;99.40
11764;DHT22;5939;56.522;14.950;2023-07-09T09:09:58;25.60;99.70
11764;DHT22;5939;56.522;14.950;2023-07-09T09:13:13;25.70;99.50
11764;DHT22;5939;56.522;14.950;2023-07-09T09:15:16;25.80;99.40
11764;DHT22;5939;56.522;14.950;2023-07-09T09:17:43;25.80;99.10
11764;DHT22;5939;56.522;14.950;2023-07-09T09:20:17;25.90;99.10
11764;DHT22;5939;56.522;14.950;2023-07-09T09:25:31;26.00;99.20
11764;DHT22;5939;56.522;14.950;2023-07-09T09:27:59;26.10;99.50
11764;DHT22;5939;56.522;14.950;2023-07-09T09:30:28;26.20;99.50
11764;DHT22;5939;56.522;14.950;2023-07-09T09:32:55;26.30;99.50
11764;DHT22;5939;56.522;14.950;2023-07-09T09:35:28;26.30;99.50
11764;DHT22;5939;56.522;14.950;2023-07-09T09:37:56;26.40;99.40
11764;DHT22;5939;56.522;14.950;2023-07-09T09:40:24;26.50;99.40
11764;DHT22;5939;56.522;14.950;2023-07-09T09:42:52;26.60;99.60
11764;DHT22;5939;56.522;14.950;2023-07-09T09:45:24;26.60;99.40
11764;DHT22;5939;56.522;14.950;2023-07-09T09:47:49;26.70;99.70
11764;DHT22;5939;56.522;14.950;2023-07-09T09:50:17;26.80;99.50
11764;DHT22;5939;56.522;14.950;2023-07-09T09:52:44;26.80;98.90
11764;DHT22;5939;56.522;14.950;2023-07-09T09:55:24;26.90;98.90
11764;DHT22;5939;56.522;14.950;2023-07-09T09:57:51;27.00;98.90
11764;DHT22;5939;56.522;14.950;2023-07-09T10:00:21;27.00;99.00
11764;DHT22;5939;56.522;14.950;2023-07-09T10:02:47;27.10;99.10
11764;DHT22;5939;56.522;14.950;2023-07-09T10:05:16;27.10;99.20
11764;DHT22;5939;56.522;14.950;2023-07-09T10:08:07;27.20;99.30
11764;DHT22;5939;56.522;14.950;2023-07-09T10:10:34;27.20;99.30
11764;DHT22;5939;56.522;14.950;2023-07-09T10:15:45;27.40;99.30
11764;DHT22;5939;56.522;14.950;2023-07-09T10:21:04;27.50;98.60
11764;DHT22;5939;56.522;14.950;2023-07-09T10:23:39;27.60;98.80
11764;DHT22;5939;56.522;14.950;2023-07-09T10:31:41;27.80;99.20
11764;DHT22;5939;56.522;14.950;2023-07-09T10:35:03;27.80;99.20
11764;DHT22;5939;56.522;14.950;2023-07-09T10:39:57;27.90;98.80
11764;DHT22;5939;56.522;14.950;2023-07-09T10:42:33;28.00;98.90
11764;DHT22;5939;56.522;14.950;2023-07-09T10:47:39;28.10;98.60
11764;DHT22;5939;56.522;14.950;2023-07-09T10:50:12;28.20;98.70
11764;DHT22;5939;56.522;14.950;2023-07-09T10:52:44;28.20;98.70
11764;DHT22;5939;56.522;14.950;2023-07-09T10:57:57;28.30;98.40
11764;DHT22;5939;56.522;14.950;2023-07-09T11:00:36;28.30;98.60
11764;DHT22;5939;56.522;14.950;2023-07-09T11:03:10;28.40;98.70
11764;DHT22;5939;56.522;14.950;2023-07-09T11:05:40;28.40;98.80
11764;DHT22;5939;56.522;14.950;2023-07-09T11:08:13;28.50;98.80
11764;DHT22;5939;56.522;14.950;2023-07-09T11:10:52;28.50;98.90
11764;DHT22;5939;56.522;14.950;2023-07-09T11:13:26;28.50;98.90
11764;DHT22;5939;56.522;14.950;2023-07-09T11:15:55;28.60;98.80
11764;DHT22;5939;56.522;14.950;2023-07-09T11:18:25;28.60;98.80
11764;DHT22;5939;56.522;14.950;2023-07-09T11:21:05;28.70;98.90
11764;DHT22;5939;56.522;14.950;2023-07-09T11:23:44;28.70;98.90
11764;DHT22;5939;56.522;14.950;2023-07-09T11:26:14;28.80;98.60
11764;DHT22;5939;56.522;14.950;2023-07-09T11:28:46;28.80;98.60
11764;DHT22;5939;56.522;14.950;2023-07-09T11:31:23;28.80;98.50
11764;DHT22;5939;56.522;14.950;2023-07-09T11:34:06;28.80;98.50
11764;DHT22;5939;56.522;14.950;2023-07-09T11:36:33;28.90;98.60
11764;DHT22;5939;56.522;14.950;2023-07-09T11:38:59;28.90;98.60
11764;DHT22;5939;56.522;14.950;2023-07-09T11:41:41;28.90;98.50
11764;DHT22;5939;56.522;14.950;2023-07-09T11:44:29;29.00;98.60
11764;DHT22;5939;56.522;14.950;2023-07-09T11:49:59;29.10;98.50
11764;DHT22;5939;56.522;14.950;2023-07-09T11:52:30;29.10;98.40
11764;DHT22;5939;56.522;14.950;2023-07-09T11:54:57;29.10;98.40
11764;DHT22;5939;56.522;14.950;2023-07-09T11:57:28;29.20;98.40
11764;DHT22;5939;56.522;14.950;2023-07-09T11:59:59;29.20;98.40
11764;DHT22;5939;56.522;14.950;2023-07-09T12:02:31;29.30;98.50
11764;DHT22;5939;56.522;14.950;2023-07-09T12:04:58;29.30;98.40
11764;DHT22;5939;56.522;14.950;2023-07-09T12:07:24;29.30;97.90
11764;DHT22;5939;56.522;14.950;2023-07-09T12:09:51;29.30;98.10
11764;DHT22;5939;56.522;14.950;2023-07-09T12:12:18;29.40;98.20
11764;DHT22;5939;56.522;14.950;2023-07-09T12:14:45;29.40;98.30
11764;DHT22;5939;56.522;14.950;2023-07-09T12:17:10;29.40;98.10
11764;DHT22;5939;56.522;14.950;2023-07-09T12:19:36;29.40;97.90
11764;DHT22;5939;56.522;14.950;2023-07-09T12:22:05;29.40;98.00
11764;DHT22;5939;56.522;14.950;2023-07-09T12:24:38;29.40;98.00
11764;DHT22;5939;56.522;14.950;2023-07-09T12:27:26;29.50;98.10
11764;DHT22;5939;56.522;14.950;2023-07-09T12:29:56;29.50;98.10
11764;DHT22;5939;56.522;14.950;2023-07-09T12:32:22;29.50;98.10
11764;DHT22;5939;56.522;14.950;2023-07-09T12:34:53;29.50;98.20
11764;DHT22;5939;56.522;14.950;2023-07-09T12:37:21;29.50;98.20
11764;DHT22;5939;56.522;14.950;2023-07-09T12:39:51;29.60;98.00
11764;DHT22;5939;56.522;14.950;2023-07-09T12:42:30;29.60;97.80
11764;DHT22;5939;56.522;14.950;2023-07-09T12:44:56;29.60;97.50
11764;DHT22;5939;56.522;14.950;2023-07-09T12:47:24;29.60;97.40
11764;DHT22;5939;56.522;14.950;2023-07-09T12:49:50;29.60;97.60
11764;DHT22;5939;56.522;14.950;2023-07-09T12:52:22;29.60;97.70
11764;DHT22;5939;56.522;14.950;2023-07-09T12:55:02;29.60;97.70
11764;DHT22;5939;56.522;14.950;2023-07-09T12:57:28;29.70;97.70
11764;DHT22;5939;56.522;14.950;2023-07-09T12:59:56;29.70;97.50
11764;DHT22;5939;56.522;14.950;2023-07-09T13:02:28;29.70;97.20
11764;DHT22;5939;56.522;14.950;2023-07-09T13:05:06;29.70;96.50
11764;DHT22;5939;56.522;14.950;2023-07-09T13:07:41;29.70;96.80
11764;DHT22;5939;56.522;14.950;2023-07-09T13:10:32;29.70;96.80
11764;DHT22;5939;56.522;14.950;2023-07-09T13:13:05;29.70;97.00
11764;DHT22;5939;56.522;14.950;2023-07-09T13:15:31;29.70;97.10
11764;DHT22;5939;56.522;14.950;2023-07-09T13:18:05;29.70;97.20
11764;DHT22;5939;56.522;14.950;2023-07-09T13:20:33;29.60;97.10
11764;DHT22;5939;56.522;14.950;2023-07-09T13:23:00;29.60;97.10
11764;DHT22;5939;56.522;14.950;2023-07-09T13:25:26;29.60;97.10
11764;DHT22;5939;56.522;14.950;2023-07-09T13:27:53;29.50;97.10
11764;DHT22;5939;56.522;14.950;2023-07-09T13:30:19;29.50;97.10
11764;DHT22;5939;56.522;14.950;2023-07-09T13:32:46;29.50;97.40
11764;DHT22;5939;56.522;14.950;2023-07-09T13:35:17;29.50;97.40
11764;DHT22;5939;56.522;14.950;2023-07-09T13:37:45;29.50;97.10
11764;DHT22;5939;56.522;14.950;2023-07-09T13:40:13;29.40;97.10
11764;DHT22;5939;56.522;14.950;2023-07-09T13:42:40;29.40;97.20
11764;DHT22;5939;56.522;14.950;2023-07-09T13:45:16;29.30;97.20
11764;DHT22;5939;56.522;14.950;2023-07-09T13:47:42;29.30;97.10
11764;DHT22;5939;56.522;14.950;2023-07-09T13:50:08;29.20;96.90
11764;DHT22;5939;56.522;14.950;2023-07-09T13:52:34;29.20;96.80
11764;DHT22;5939;56.522;14.950;2023-07-09T13:55:00;29.10;96.80
11764;DHT22;5939;56.522;14.950;2023-07-09T13:57:25;29.10;96.70
11764;DHT22;5939;56.522;14.950;2023-07-09T13:59:51;29.10;96.70
11764;DHT22;5939;56.522;14.950;2023-07-09T14:04:50;28.90;96.80
11764;DHT22;5939;56.522;14.950;2023-07-09T14:07:29;28.90;97.00
11764;DHT22;5939;56.522;14.950;2023-07-09T14:09:57;28.90;97.10
11764;DHT22;5939;56.522;14.950;2023-07-09T14:12:23;28.80;97.00
11764;DHT22;5939;56.522;14.950;2023-07-09T14:14:53;28.80;97.20
11764;DHT22;5939;56.522;14.950;2023-07-09T14:17:21;28.70;97.30
11764;DHT22;5939;56.522;14.950;2023-07-09T14:19:48;28.70;97.40
11764;DHT22;5939;56.522;14.950;2023-07-09T14:22:34;28.60;97.20
11764;DHT22;5939;56.522;14.950;2023-07-09T14:25:01;28.60;97.30
11764;DHT22;5939;56.522;14.950;2023-07-09T14:27:27;28.60;97.30
11764;DHT22;5939;56.522;14.950;2023-07-09T14:29:54;28.50;97.30
11764;DHT22;5939;56.522;14.950;2023-07-09T14:34:58;28.40;97.20
11764;DHT22;5939;56.522;14.950;2023-07-09T14:37:24;28.40;97.30
11764;DHT22;5939;56.522;14.950;2023-07-09T14:39:50;28.30;97.30
11764;DHT22;5939;56.522;14.950;2023-07-09T14:42:16;28.30;97.30
11764;DHT22;5939;56.522;14.950;2023-07-09T14:44:41;28.30;97.20
11764;DHT22;5939;56.522;14.950;2023-07-09T14:47:14;28.20;97.30
11764;DHT22;5939;56.522;14.950;2023-07-09T14:49:40;28.20;97.20
11764;DHT22;5939;56.522;14.950;2023-07-09T14:52:13;28.10;97.10
11764;DHT22;5939;56.522;14.950;2023-07-09T14:54:39;28.00;97.00
11764;DHT22;5939;56.522;14.950;2023-07-09T14:57:16;28.00;97.00
11764;DHT22;5939;56.522;14.950;2023-07-09T14:59:43;28.00;97.00
11764;DHT22;5939;56.522;14.950;2023-07-09T15:02:32;27.90;97.00
11764;DHT22;5939;56.522;14.950;2023-07-09T15:04:59;27.90;97.10
11764;DHT22;5939;56.522;14.950;2023-07-09T15:07:25;27.90;97.00
11764;DHT22;5939;56.522;14.950;2023-07-09T15:09:56;27.80;97.10
11764;DHT22;5939;56.522;14.950;2023-07-09T15:12:26;27.80;97.20
11764;DHT22;5939;56.522;14.950;2023-07-09T15:14:53;27.80;97.20
11764;DHT22;5939;56.522;14.950;2023-07-09T15:17:21;27.70;97.20
11764;DHT22;5939;56.522;14.950;2023-07-09T15:19:46;27.70;97.20
11764;DHT22;5939;56.522;14.950;2023-07-09T15:22:29;27.60;97.20
11764;DHT22;5939;56.522;14.950;2023-07-09T15:24:56;27.60;97.10
11764;DHT22;5939;56.522;14.950;2023-07-09T15:27:21;27.50;97.10
11764;DHT22;5939;56.522;14.950;2023-07-09T15:29:47;27.50;97.20
11764;DHT22;5939;56.522;14.950;2023-07-09T15:32:13;27.50;97.20
11764;DHT22;5939;56.522;14.950;2023-07-09T15:34:38;27.40;97.20
11764;DHT22;5939;56.522;14.950;2023-07-09T15:37:11;27.40;97.20
11764;DHT22;5939;56.522;14.950;2023-07-09T15:39:38;27.40;97.20
11764;DHT22;5939;56.522;14.950;2023-07-09T15:42:12;27.40;97.20
11764;DHT22;5939;56.522;14.950;2023-07-09T15:44:38;27.30;97.30
11764;DHT22;5939;56.522;14.950;2023-07-09T15:47:04;27.30;97.30
11764;DHT22;5939;56.522;14.950;2023-07-09T15:49:32;27.20;97.30
11764;DHT22;5939;56.522;14.950;2023-07-09T15:51:57;27.30;97.40
11764;DHT22;5939;56.522;14.950;2023-07-09T15:54:24;27.20;97.40
11764;DHT22;5939;56.522;14.950;2023-07-09T15:56:51;27.20;97.40
11764;DHT22;5939;56.522;14.950;2023-07-09T15:59:29;27.10;97.40
11764;DHT22;5939;56.522;14.950;2023-07-09T16:01:56;27.10;97.40
11764;DHT22;5939;56.522;14.950;2023-07-09T16:04:22;27.10;97.40
11764;DHT22;5939;56.522;14.950;2023-07-09T16:06:48;27.00;97.30
11764;DHT22;5939;56.522;14.950;2023-07-09T16:09:13;27.00;97.30
11764;DHT22;5939;56.522;14.950;2023-07-09T16:11:57;27.00;97.30